Time;durP1;ratioP1;P1;durP2;ratioP2;P2;SDS_P1;SDS_P2;PMS_P1;PMS_P2;Temp;Humidity;BMP_temperature;BMP_pressure;BME280_temperature;BME280_humidity;BME280_pressure;Samples;Min_cycle;Max_cycle;Signal;HPM_P1;HPM_P2
2024/03/04 00:00:46;;;;;;;17.48;2.65;;;22.40;57.00;;;;;;5098677;28;20132;-54
2024/03/04 00:03:12;;;;;;;14.13;2.13;;;22.20;57.40;;;;;;5124252;27;20084;-54
2024/03/04 00:05:39;;;;;;;21.02;2.28;;;22.20;57.70;;;;;;5119569;27;20109;-57
2024/03/04 00:08:05;;;;;;;12.82;1.25;;;22.00;57.90;;;;;;5121480;27;20067;-58
2024/03/04 00:10:32;;;;;;;12.50;3.33;;;21.80;58.30;;;;;;5105662;27;20072;-60
2024/03/04 00:12:58;;;;;;;19.10;5.35;;;21.90;58.10;;;;;;5113628;27;20068;-61
2024/03/04 00:15:25;;;;;;;14.85;4.10;;;22.00;58.00;;;;;;5116995;27;20193;-61
2024/03/04 00:17:52;;;;;;;31.05;6.32;;;21.90;58.30;;;;;;5106118;28;20190;-59
2024/03/04 00:20:18;;;;;;;22.23;4.97;;;21.90;58.40;;;;;;5120340;27;20095;-53
2024/03/04 00:22:47;;;;;;;22.13;6.20;;;21.70;58.70;;;;;;5119010;27;20072;-55
2024/03/04 00:25:16;;;;;;;14.38;5.30;;;21.60;58.80;;;;;;5111886;27;20452;-55
2024/03/04 00:27:43;;;;;;;18.02;5.20;;;21.60;59.10;;;;;;5104226;27;20174;-60
2024/03/04 00:30:10;;;;;;;19.08;5.35;;;21.60;59.50;;;;;;5108949;28;20076;-55
2024/03/04 00:32:37;;;;;;;17.15;5.15;;;21.50;60.50;;;;;;5104934;28;20567;-53
2024/03/04 00:35:09;;;;;;;7.00;1.25;;;21.40;60.50;;;;;;5115341;27;20526;-56
2024/03/04 00:37:36;;;;;;;9.77;0.95;;;21.30;61.50;;;;;;5114895;27;20068;-59
2024/03/04 00:40:07;;;;;;;4.97;1.20;;;21.20;62.00;;;;;;5104754;27;20159;-52
2024/03/04 00:42:34;;;;;;;5.10;1.05;;;21.20;62.30;;;;;;5107446;28;20064;-60
2024/03/04 00:45:02;;;;;;;2.30;0.50;;;21.00;62.70;;;;;;5114298;27;20067;-52
2024/03/04 00:47:29;;;;;;;1.73;0.60;;;21.00;63.20;;;;;;5108801;27;20998;-58
2024/03/04 00:49:55;;;;;;;3.65;0.65;;;20.90;63.30;;;;;;5106506;27;20068;-60
2024/03/04 00:52:22;;;;;;;7.88;0.70;;;20.90;64.00;;;;;;5110770;28;20078;-57
2024/03/04 00:54:48;;;;;;;5.00;0.93;;;20.80;64.40;;;;;;5113048;28;20087;-61
2024/03/04 00:57:15;;;;;;;7.65;1.20;;;20.80;64.70;;;;;;5114968;27;20509;-58
2024/03/04 00:59:42;;;;;;;5.60;1.00;;;20.80;65.00;;;;;;5113091;27;22419;-56
2024/03/04 01:02:09;;;;;;;8.82;1.75;;;20.70;64.70;;;;;;5128862;27;20109;-53
2024/03/04 01:04:36;;;;;;;11.50;1.65;;;20.70;64.50;;;;;;5118938;27;20069;-60
2024/03/04 01:07:02;;;;;;;13.95;1.88;;;20.70;64.00;;;;;;5108047;28;20073;-58
2024/03/04 01:09:28;;;;;;;7.30;1.00;;;20.70;64.40;;;;;;5092125;28;20110;-59
2024/03/04 01:11:55;;;;;;;5.70;1.05;;;20.60;64.50;;;;;;5111960;27;20064;-59
2024/03/04 01:14:22;;;;;;;4.28;0.65;;;20.50;65.00;;;;;;5115352;27;20078;-59
2024/03/04 01:16:49;;;;;;;3.65;0.70;;;20.40;65.40;;;;;;5123045;27;21427;-57
2024/03/04 01:19:17;;;;;;;4.13;1.08;;;20.30;66.10;;;;;;5092265;28;20116;-58
2024/03/04 01:21:44;;;;;;;4.38;1.13;;;20.10;66.50;;;;;;5103763;28;20186;-56
2024/03/04 01:24:11;;;;;;;3.60;1.48;;;20.10;67.10;;;;;;5113023;27;20068;-58
2024/03/04 01:26:38;;;;;;;6.95;1.25;;;20.00;67.60;;;;;;5112031;27;20100;-60
2024/03/04 01:29:04;;;;;;;6.15;2.10;;;19.90;68.50;;;;;;5130819;27;20117;-61
2024/03/04 01:31:30;;;;;;;13.40;2.58;;;19.80;68.70;;;;;;5132786;27;20144;-51
2024/03/04 01:33:57;;;;;;;2.65;0.90;;;19.80;69.00;;;;;;5129944;27;20075;-59
2024/03/04 01:36:23;;;;;;;3.50;1.95;;;19.70;69.10;;;;;;5113967;28;20158;-59
2024/03/04 01:38:50;;;;;;;5.47;1.42;;;19.70;69.90;;;;;;5132965;27;20095;-56
2024/03/04 01:41:17;;;;;;;3.42;1.10;;;19.60;70.30;;;;;;5132781;27;20092;-59
2024/03/04 01:43:44;;;;;;;4.97;1.65;;;19.60;70.60;;;;;;5133328;27;20076;-58
2024/03/04 01:46:10;;;;;;;9.75;4.03;;;19.50;71.10;;;;;;5118320;27;20171;-56
2024/03/04 01:48:37;;;;;;;7.15;4.15;;;19.50;71.60;;;;;;5110917;28;20068;-49
2024/03/04 01:51:05;;;;;;;6.45;2.83;;;19.40;71.90;;;;;;5112067;28;20067;-51
2024/03/04 01:53:32;;;;;;;10.80;5.05;;;19.40;71.50;;;;;;5115124;28;20065;-56
2024/03/04 01:56:04;;;;;;;11.20;4.95;;;19.30;71.40;;;;;;5113674;28;20358;-55
2024/03/04 01:58:32;;;;;;;6.53;2.90;;;19.30;71.50;;;;;;5114193;28;20071;-53
2024/03/04 02:01:01;;;;;;;9.00;5.20;;;19.30;71.80;;;;;;5116024;27;20107;-52
2024/03/04 02:03:31;;;;;;;14.52;3.92;;;19.30;71.80;;;;;;5113894;27;20141;-51
2024/03/04 02:06:00;;;;;;;7.18;3.25;;;19.30;72.30;;;;;;5095168;28;20084;-55
2024/03/04 02:08:28;;;;;;;8.35;4.13;;;19.20;72.70;;;;;;5095689;28;20072;-55
2024/03/04 02:10:55;;;;;;;7.72;3.53;;;19.10;73.30;;;;;;5114470;27;20072;-59
2024/03/04 02:13:22;;;;;;;8.70;3.78;;;19.10;73.30;;;;;;5109437;27;20535;-58
2024/03/04 02:15:50;;;;;;;8.95;2.50;;;19.00;73.40;;;;;;5112396;27;20111;-57
2024/03/04 02:18:20;;;;;;;11.48;3.17;;;19.00;73.60;;;;;;5105832;27;20465;-59
2024/03/04 02:20:51;;;;;;;6.20;2.30;;;18.90;73.60;;;;;;5112464;27;20096;-57
2024/03/04 02:23:17;;;;;;;17.88;4.30;;;18.90;73.50;;;;;;5112860;27;20064;-61
2024/03/04 02:25:55;;;;;;;13.52;3.88;;;19.00;73.40;;;;;;5107880;27;20088;-53
2024/03/04 02:28:22;;;;;;;9.07;3.92;;;18.90;73.30;;;;;;5115377;27;20072;-54
2024/03/04 02:30:50;;;;;;;11.77;2.38;;;19.00;72.60;;;;;;5106000;27;20154;-54
2024/03/04 02:33:22;;;;;;;11.23;2.10;;;19.00;72.40;;;;;;5104371;27;20095;-60
2024/03/04 02:35:51;;;;;;;6.95;1.75;;;19.00;72.00;;;;;;5113570;27;20113;-53
2024/03/04 02:38:19;;;;;;;6.75;1.70;;;19.00;72.10;;;;;;5112981;27;20107;-52
2024/03/04 02:40:51;;;;;;;13.02;1.80;;;19.00;72.40;;;;;;5109526;27;20092;-53
2024/03/04 02:43:18;;;;;;;5.85;1.30;;;19.00;72.90;;;;;;5107345;27;20129;-48
2024/03/04 02:45:44;;;;;;;2.03;1.25;;;18.90;73.10;;;;;;5106283;27;20141;-52
2024/03/04 02:48:11;;;;;;;5.57;3.22;;;18.90;73.40;;;;;;5109765;27;20249;-50
2024/03/04 02:50:38;;;;;;;4.60;1.70;;;18.80;73.50;;;;;;5107970;27;20075;-49
2024/03/04 02:53:05;;;;;;;40.92;34.70;;;18.80;73.50;;;;;;5112115;27;20215;-54
2024/03/04 02:55:31;;;;;;;6.70;2.08;;;18.80;73.50;;;;;;5101960;27;20068;-57
2024/03/04 02:57:58;;;;;;;6.43;1.60;;;18.80;74.10;;;;;;5111869;27;20144;-55
2024/03/04 03:00:24;;;;;;;4.82;1.05;;;18.80;73.50;;;;;;5109111;28;20092;-52
2024/03/04 03:02:50;;;;;;;2.10;0.73;;;18.70;73.90;;;;;;5112578;27;20079;-49
2024/03/04 03:05:17;;;;;;;3.75;0.75;;;18.70;74.50;;;;;;5112954;27;20566;-49
2024/03/04 03:07:43;;;;;;;7.32;0.77;;;18.60;75.50;;;;;;5110478;27;20068;-53
2024/03/04 03:10:10;;;;;;;4.30;0.80;;;18.50;76.40;;;;;;5111865;27;20065;-55
2024/03/04 03:12:38;;;;;;;4.30;0.80;;;18.40;76.90;;;;;;5097789;28;20111;-55
2024/03/04 03:15:06;;;;;;;10.55;1.02;;;18.30;76.90;;;;;;5097908;27;20072;-52
2024/03/04 03:17:34;;;;;;;8.32;1.08;;;18.30;76.80;;;;;;5110959;27;20068;-55
2024/03/04 03:20:01;;;;;;;7.45;1.10;;;18.30;77.00;;;;;;5105974;27;20061;-57
2024/03/04 03:22:28;;;;;;;6.45;1.30;;;18.20;76.90;;;;;;5115812;27;20064;-58
2024/03/04 03:24:54;;;;;;;2.55;1.20;;;18.20;77.40;;;;;;5114524;27;20141;-56
2024/03/04 03:27:21;;;;;;;5.68;1.05;;;18.10;78.10;;;;;;5110977;27;20075;-59
2024/03/04 03:29:47;;;;;;;4.30;0.70;;;18.00;78.70;;;;;;5115949;27;20074;-58
2024/03/04 03:32:13;;;;;;;1.95;0.75;;;18.00;79.30;;;;;;5109881;27;20092;-59
2024/03/04 03:34:40;;;;;;;15.82;3.65;;;18.00;79.20;;;;;;5104477;27;20107;-57
2024/03/04 03:37:06;;;;;;;10.65;2.80;;;18.00;79.70;;;;;;5105973;27;20172;-51
2024/03/04 03:39:33;;;;;;;3.80;1.20;;;18.00;80.20;;;;;;5107802;27;20536;-60
2024/03/04 03:41:59;;;;;;;7.43;1.10;;;17.90;80.90;;;;;;5107226;27;20447;-61
2024/03/04 03:44:26;;;;;;;8.15;1.00;;;17.90;81.40;;;;;;5103382;27;20080;-58
2024/03/04 03:46:52;;;;;;;10.88;1.33;;;17.80;81.90;;;;;;5111027;27;20117;-59
2024/03/04 03:49:20;;;;;;;9.18;1.10;;;17.80;82.20;;;;;;5111880;27;20068;-57
2024/03/04 03:51:46;;;;;;;5.88;1.33;;;17.70;82.60;;;;;;5108409;27;20540;-53
2024/03/04 03:54:12;;;;;;;4.60;1.27;;;17.80;83.20;;;;;;5110029;28;20518;-56
2024/03/04 03:56:42;;;;;;;5.78;1.23;;;17.60;83.40;;;;;;5119248;27;20158;-57
2024/03/04 03:59:08;;;;;;;3.83;1.15;;;17.60;83.60;;;;;;5093759;28;20072;-60
2024/03/04 04:01:36;;;;;;;6.68;0.98;;;17.60;83.70;;;;;;5106200;28;20134;-57
2024/03/04 04:04:04;;;;;;;10.05;1.10;;;17.50;84.10;;;;;;5113995;28;20086;-59
2024/03/04 04:06:30;;;;;;;7.85;1.13;;;17.40;84.20;;;;;;5113566;27;20064;-58
2024/03/04 04:08:57;;;;;;;10.68;1.40;;;17.40;84.40;;;;;;5111265;28;20163;-54
2024/03/04 04:11:23;;;;;;;5.68;1.13;;;17.40;84.50;;;;;;5111770;28;20518;-53
2024/03/04 04:13:50;;;;;;;10.25;1.50;;;17.40;84.40;;;;;;5109531;28;20517;-60
2024/03/04 04:16:17;;;;;;;7.00;1.15;;;17.30;84.30;;;;;;5110303;27;20076;-50
2024/03/04 04:18:43;;;;;;;19.95;1.23;;;17.30;84.40;;;;;;5111001;28;20160;-49
2024/03/04 04:21:10;;;;;;;14.10;0.77;;;17.30;84.30;;;;;;5111299;28;20130;-54
2024/03/04 04:23:36;;;;;;;5.32;1.02;;;17.30;84.30;;;;;;5102302;28;20072;-56
2024/03/04 04:26:05;;;;;;;6.63;0.95;;;17.20;84.50;;;;;;5116031;27;20099;-56
2024/03/04 04:28:32;;;;;;;6.38;1.20;;;17.10;84.70;;;;;;5119979;27;20079;-55
2024/03/04 04:30:58;;;;;;;7.78;1.85;;;17.10;84.80;;;;;;5111169;28;20106;-56
2024/03/04 04:33:25;;;;;;;9.60;1.55;;;17.10;84.90;;;;;;5111516;28;20072;-58
2024/03/04 04:35:51;;;;;;;5.10;1.60;;;17.00;85.00;;;;;;5113483;28;20064;-57
2024/03/04 04:38:21;;;;;;;3.85;1.25;;;16.90;85.10;;;;;;5111251;28;20122;-55
2024/03/04 04:40:50;;;;;;;7.80;1.10;;;16.90;85.20;;;;;;5110294;28;20157;-59
2024/03/04 04:43:16;;;;;;;8.27;1.10;;;17.00;85.30;;;;;;5113499;27;20075;-54
2024/03/04 04:45:43;;;;;;;10.45;1.83;;;17.00;85.20;;;;;;5122502;27;20470;-55
2024/03/04 04:48:09;;;;;;;6.32;1.48;;;17.00;85.20;;;;;;5111946;27;20068;-57
2024/03/04 04:50:36;;;;;;;8.13;1.25;;;17.00;84.90;;;;;;5117551;27;20129;-57
2024/03/04 04:53:02;;;;;;;5.68;0.90;;;16.90;84.90;;;;;;5111229;28;20802;-58
2024/03/04 04:55:28;;;;;;;4.47;0.90;;;16.90;84.90;;;;;;5124704;27;20092;-57
2024/03/04 04:57:56;;;;;;;5.13;1.08;;;16.90;85.00;;;;;;5122725;27;20072;-56
2024/03/04 05:00:22;;;;;;;8.90;0.85;;;16.90;85.00;;;;;;5110890;27;20091;-57
2024/03/04 05:02:49;;;;;;;7.00;0.88;;;16.90;85.30;;;;;;5113006;28;20151;-59
2024/03/04 05:05:15;;;;;;;7.25;1.00;;;16.90;85.10;;;;;;5110402;28;20079;-57
2024/03/04 05:07:41;;;;;;;4.50;0.93;;;16.90;85.00;;;;;;5118318;27;20514;-58
2024/03/04 05:10:08;;;;;;;2.15;0.60;;;16.80;85.00;;;;;;5131144;27;20402;-69
2024/03/04 05:12:35;;;;;;;3.72;0.75;;;16.80;85.30;;;;;;5105142;28;20077;-57
2024/03/04 05:15:04;;;;;;;10.82;0.90;;;16.80;85.50;;;;;;5104423;27;20091;-57
2024/03/04 05:17:31;;;;;;;6.30;1.17;;;16.80;85.20;;;;;;5103021;27;20125;-56
2024/03/04 05:19:58;;;;;;;9.68;1.05;;;16.80;85.40;;;;;;5093503;28;20076;-57
2024/03/04 05:22:25;;;;;;;10.85;1.20;;;16.70;85.00;;;;;;5117273;27;20541;-57
2024/03/04 05:24:51;;;;;;;4.45;0.95;;;16.70;85.30;;;;;;5121778;27;20068;-58
2024/03/04 05:27:18;;;;;;;6.82;1.13;;;16.60;85.20;;;;;;5093369;28;20079;-56
2024/03/04 05:29:44;;;;;;;5.60;1.30;;;16.60;85.50;;;;;;5112532;27;20117;-55
2024/03/04 05:32:11;;;;;;;9.82;1.30;;;16.60;85.20;;;;;;5109049;28;20083;-55
2024/03/04 05:34:40;;;;;;;11.13;1.25;;;16.50;85.20;;;;;;5110012;27;20067;-55
2024/03/04 05:37:06;;;;;;;4.75;1.10;;;16.50;85.40;;;;;;5126947;27;20063;-58
2024/03/04 05:39:33;;;;;;;6.30;0.90;;;16.50;85.40;;;;;;5115981;27;20071;-55
2024/03/04 05:42:00;;;;;;;1.40;0.70;;;16.50;85.50;;;;;;5110351;28;20104;-55
2024/03/04 05:44:27;;;;;;;4.13;0.80;;;16.50;85.20;;;;;;5105234;28;20079;-54
2024/03/04 05:46:55;;;;;;;3.25;0.70;;;16.40;85.10;;;;;;5108052;28;20069;-57
2024/03/04 05:49:21;;;;;;;4.78;0.70;;;16.40;84.80;;;;;;5111317;28;20120;-53
2024/03/04 05:51:48;;;;;;;4.00;0.98;;;16.40;84.80;;;;;;5112620;27;20064;-56
2024/03/04 05:54:14;;;;;;;4.25;1.23;;;16.40;85.00;;;;;;5116537;27;20175;-62
2024/03/04 05:56:45;;;;;;;7.55;1.00;;;16.40;85.00;;;;;;5118009;27;20098;-56
2024/03/04 05:59:13;;;;;;;2.58;0.80;;;16.30;85.00;;;;;;5119449;28;20076;-55
2024/03/04 06:01:40;;;;;;;6.10;1.23;;;16.30;84.90;;;;;;5107211;28;20088;-55
2024/03/04 06:04:06;;;;;;;3.03;0.90;;;16.30;84.90;;;;;;5110238;28;20072;-56
2024/03/04 06:06:33;;;;;;;2.08;0.88;;;16.30;84.80;;;;;;5112077;28;20161;-56
2024/03/04 06:09:03;;;;;;;3.83;1.20;;;16.30;84.70;;;;;;5102080;28;20414;-56
2024/03/04 06:11:30;;;;;;;2.85;1.00;;;16.30;84.70;;;;;;5104167;28;20082;-58
2024/03/04 06:13:56;;;;;;;4.38;0.95;;;16.20;84.30;;;;;;5112163;28;20064;-59
2024/03/04 06:16:23;;;;;;;6.18;1.20;;;16.20;84.40;;;;;;5107544;28;20079;-58
2024/03/04 06:18:49;;;;;;;6.30;0.70;;;16.20;84.40;;;;;;5108621;28;20114;-58
2024/03/04 06:21:16;;;;;;;3.58;1.00;;;16.10;84.40;;;;;;5104354;28;20096;-57
2024/03/04 06:23:42;;;;;;;2.10;1.02;;;16.10;84.50;;;;;;5100163;28;20072;-59
2024/03/04 06:26:11;;;;;;;2.17;1.00;;;16.10;84.10;;;;;;5103204;28;20092;-59
2024/03/04 06:28:38;;;;;;;2.40;0.93;;;16.10;84.30;;;;;;5108269;28;20206;-57
2024/03/04 06:31:05;;;;;;;2.85;1.10;;;16.10;84.40;;;;;;5109911;28;20471;-57
2024/03/04 06:33:32;;;;;;;8.88;1.30;;;16.10;84.70;;;;;;5105640;28;20083;-57
2024/03/04 06:35:58;;;;;;;6.78;1.20;;;16.00;85.10;;;;;;5107842;28;20537;-51
2024/03/04 06:38:25;;;;;;;3.85;1.38;;;16.00;85.30;;;;;;5113402;28;20164;-53
2024/03/04 06:40:52;;;;;;;8.20;1.52;;;15.90;85.50;;;;;;5113381;28;20092;-54
2024/03/04 06:43:19;;;;;;;5.00;1.42;;;15.90;85.70;;;;;;5110956;28;21168;-52
2024/03/04 06:45:45;;;;;;;7.13;1.58;;;15.90;85.80;;;;;;5109416;28;20073;-51
2024/03/04 06:48:13;;;;;;;2.75;1.17;;;15.70;85.60;;;;;;5105231;28;20068;-64
2024/03/04 06:50:40;;;;;;;8.25;1.33;;;15.60;85.50;;;;;;5100237;28;20574;-51
2024/03/04 06:53:08;;;;;;;6.28;1.40;;;15.60;85.40;;;;;;5103761;28;20068;-54
2024/03/04 06:55:35;;;;;;;7.32;1.67;;;15.60;85.30;;;;;;5109070;28;20442;-54
2024/03/04 06:58:02;;;;;;;4.57;1.27;;;15.60;85.20;;;;;;5099381;28;20593;-55
2024/03/04 07:00:28;;;;;;;5.97;1.30;;;15.50;85.10;;;;;;5109388;28;20095;-54
2024/03/04 07:02:55;;;;;;;5.40;1.50;;;15.50;85.00;;;;;;5101198;28;20155;-61
2024/03/04 07:05:21;;;;;;;5.90;1.23;;;15.50;85.10;;;;;;5109775;28;20160;-55
2024/03/04 07:07:49;;;;;;;4.68;1.17;;;15.40;85.00;;;;;;5104450;28;20081;-55
2024/03/04 07:10:16;;;;;;;4.97;1.23;;;15.40;84.80;;;;;;5104399;28;20064;-54
2024/03/04 07:12:42;;;;;;;6.10;1.70;;;15.40;84.10;;;;;;5106898;28;20155;-51
2024/03/04 07:15:09;;;;;;;5.00;1.50;;;15.30;83.60;;;;;;5094362;28;20102;-51
2024/03/04 07:17:35;;;;;;;6.63;1.30;;;15.30;82.50;;;;;;5097635;28;20541;-55
2024/03/04 07:20:03;;;;;;;6.15;1.38;;;15.30;82.00;;;;;;5108234;28;20072;-53
2024/03/04 07:22:30;;;;;;;7.18;1.83;;;15.30;80.80;;;;;;5109650;28;20106;-53
2024/03/04 07:24:56;;;;;;;5.20;1.15;;;15.30;80.90;;;;;;5105612;28;20071;-54
2024/03/04 07:27:22;;;;;;;20.83;15.38;;;15.30;80.20;;;;;;5110626;28;20090;-54
2024/03/04 07:29:49;;;;;;;6.78;1.45;;;15.20;79.80;;;;;;5099752;27;20128;-56
2024/03/04 07:32:15;;;;;;;7.40;1.60;;;15.20;78.90;;;;;;5106271;28;20075;-55
2024/03/04 07:34:42;;;;;;;3.72;1.00;;;15.10;78.10;;;;;;5099178;28;20078;-55
2024/03/04 07:37:08;;;;;;;9.07;1.20;;;15.20;77.50;;;;;;5106996;28;20079;-52
2024/03/04 07:39:35;;;;;;;5.82;1.45;;;15.20;77.10;;;;;;5097470;28;20056;-54
2024/03/04 07:42:01;;;;;;;3.33;1.23;;;15.20;77.00;;;;;;5101497;28;20092;-55
2024/03/04 07:44:28;;;;;;;7.50;1.63;;;15.10;76.90;;;;;;5108422;28;20076;-56
2024/03/04 07:46:54;;;;;;;7.60;1.73;;;15.10;76.40;;;;;;5106846;27;20114;-58
2024/03/04 07:49:21;;;;;;;6.47;1.40;;;15.10;76.50;;;;;;5105963;28;20159;-53
2024/03/04 07:51:47;;;;;;;4.72;1.25;;;15.00;76.50;;;;;;5110733;28;20068;-55
2024/03/04 07:54:14;;;;;;;4.70;1.33;;;15.00;76.80;;;;;;5112492;28;20068;-57
2024/03/04 07:56:40;;;;;;;3.50;1.30;;;15.00;76.90;;;;;;5110462;28;20067;-54
2024/03/04 07:59:07;;;;;;;7.15;1.60;;;15.00;76.80;;;;;;5109400;28;20189;-54
2024/03/04 08:01:33;;;;;;;5.28;1.63;;;15.00;77.40;;;;;;5105918;28;20104;-61
2024/03/04 08:04:00;;;;;;;4.32;1.58;;;15.10;77.10;;;;;;5103204;28;20076;-55
2024/03/04 08:06:26;;;;;;;8.80;1.42;;;15.10;76.60;;;;;;5108348;28;20452;-56
2024/03/04 08:08:53;;;;;;;8.23;1.70;;;15.10;76.30;;;;;;5105663;28;20151;-56
2024/03/04 08:11:20;;;;;;;12.20;2.03;;;15.10;76.10;;;;;;5106459;28;20981;-53
2024/03/04 08:13:46;;;;;;;10.93;1.38;;;15.00;75.90;;;;;;5109342;28;20075;-56
2024/03/04 08:16:13;;;;;;;6.47;1.95;;;15.00;75.80;;;;;;5109843;28;20155;-53
2024/03/04 08:18:40;;;;;;;4.43;1.30;;;15.00;75.70;;;;;;5109481;28;20143;-58
2024/03/04 08:21:13;;;;;;;4.82;1.30;;;14.90;75.60;;;;;;5100458;28;20164;-53
2024/03/04 08:23:40;;;;;;;3.50;1.20;;;15.00;75.50;;;;;;5108911;28;20121;-50
2024/03/04 08:26:07;;;;;;;4.43;1.33;;;15.00;75.50;;;;;;5109376;28;20068;-55
2024/03/04 08:28:33;;;;;;;3.53;1.30;;;15.00;75.10;;;;;;5101001;28;20084;-54
2024/03/04 08:31:00;;;;;;;3.30;1.25;;;15.10;75.20;;;;;;5101508;28;20084;-55
2024/03/04 08:33:26;;;;;;;8.02;1.20;;;15.10;74.80;;;;;;5097976;28;20518;-56
2024/03/04 08:35:53;;;;;;;3.85;1.45;;;15.10;74.30;;;;;;5104510;28;20073;-56
2024/03/04 08:38:20;;;;;;;3.88;1.20;;;15.10;74.30;;;;;;5109402;28;20075;-50
2024/03/04 08:40:46;;;;;;;6.78;1.42;;;15.10;74.80;;;;;;5108428;28;20099;-53
2024/03/04 08:43:13;;;;;;;5.32;1.15;;;15.00;76.40;;;;;;5105651;28;20068;-57
2024/03/04 08:45:40;;;;;;;8.40;1.60;;;14.90;77.10;;;;;;5099977;28;20060;-53
2024/03/04 08:48:08;;;;;;;8.55;1.77;;;14.70;78.40;;;;;;5099316;28;20564;-54
2024/03/04 08:50:34;;;;;;;6.88;1.75;;;14.60;80.40;;;;;;5105382;28;20072;-55
2024/03/04 08:53:00;;;;;;;4.30;1.23;;;14.60;79.50;;;;;;5108164;28;20614;-61
2024/03/04 08:55:27;;;;;;;5.97;1.27;;;14.60;80.40;;;;;;5101365;28;20100;-55
2024/03/04 08:57:54;;;;;;;11.73;1.48;;;14.40;82.00;;;;;;5092355;28;20076;-53
2024/03/04 09:00:21;;;;;;;10.95;1.35;;;14.30;82.90;;;;;;5108519;28;20151;-52
2024/03/04 09:02:47;;;;;;;7.78;2.10;;;14.30;82.70;;;;;;5109428;28;20072;-52
2024/03/04 09:05:14;;;;;;;15.20;1.70;;;14.30;82.80;;;;;;5101200;28;20518;-52
2024/03/04 09:07:40;;;;;;;10.25;1.92;;;14.30;82.40;;;;;;5102208;28;20103;-53
2024/03/04 09:10:07;;;;;;;13.15;2.00;;;14.40;81.60;;;;;;5100062;28;20068;-53
2024/03/04 09:12:34;;;;;;;18.70;1.83;;;14.50;80.80;;;;;;5108218;28;20068;-54
2024/03/04 09:15:00;;;;;;;13.52;1.63;;;14.60;80.70;;;;;;5108143;28;20095;-54
2024/03/04 09:17:27;;;;;;;11.90;2.25;;;14.50;80.80;;;;;;5110993;28;20064;-55
2024/03/04 09:19:53;;;;;;;12.55;1.80;;;14.60;81.10;;;;;;5106868;28;20096;-53
2024/03/04 09:22:21;;;;;;;9.30;1.50;;;14.50;80.80;;;;;;5108556;28;20099;-62
2024/03/04 09:24:48;;;;;;;10.60;1.58;;;14.60;80.80;;;;;;5103422;28;20060;-54
2024/03/04 09:27:15;;;;;;;9.40;1.83;;;14.60;80.10;;;;;;5103864;28;20491;-55
2024/03/04 09:29:41;;;;;;;37.47;18.80;;;14.60;79.70;;;;;;5091270;28;20179;-54
2024/03/04 09:32:08;;;;;;;44.90;18.63;;;14.70;80.40;;;;;;5106051;28;20479;-58
2024/03/04 09:34:34;;;;;;;13.23;1.80;;;14.70;80.50;;;;;;5109075;28;20448;-57
2024/03/04 09:37:01;;;;;;;10.38;1.73;;;14.70;80.20;;;;;;5106826;28;20220;-55
2024/03/04 09:39:28;;;;;;;9.93;1.98;;;14.70;80.40;;;;;;5100809;28;20084;-55
2024/03/04 09:41:55;;;;;;;14.13;2.10;;;14.70;80.60;;;;;;5100561;28;20119;-50
2024/03/04 09:44:27;;;;;;;15.73;2.28;;;14.70;81.20;;;;;;5103994;28;20064;-53
2024/03/04 09:46:55;;;;;;;15.43;2.63;;;14.70;81.70;;;;;;5107518;28;20064;-50
2024/03/04 09:49:28;;;;;;;20.27;2.25;;;14.70;81.90;;;;;;5108336;28;20078;-51
2024/03/04 09:51:59;;;;;;;16.65;2.15;;;14.70;81.30;;;;;;5100821;28;20169;-54
2024/03/04 09:54:29;;;;;;;15.50;2.50;;;14.70;81.60;;;;;;5094438;28;20071;-56
2024/03/04 09:56:56;;;;;;;11.48;1.90;;;14.70;81.80;;;;;;5104621;28;20109;-52
2024/03/04 09:59:24;;;;;;;16.70;1.70;;;14.70;82.20;;;;;;5108987;28;20562;-51
2024/03/04 10:01:52;;;;;;;14.98;2.05;;;14.70;82.30;;;;;;5107919;28;20088;-51
2024/03/04 10:04:21;;;;;;;9.52;2.15;;;14.70;82.60;;;;;;5107807;28;20072;-52
2024/03/04 10:06:48;;;;;;;10.10;2.45;;;14.60;82.50;;;;;;5103754;28;20068;-54
2024/03/04 10:09:14;;;;;;;14.65;2.00;;;14.70;82.90;;;;;;5107191;28;20083;-52
2024/03/04 10:11:41;;;;;;;11.45;2.10;;;14.60;82.70;;;;;;5108386;28;20068;-55
2024/03/04 10:14:10;;;;;;;14.68;1.98;;;14.60;82.50;;;;;;5111525;28;20081;-53
2024/03/04 10:16:39;;;;;;;10.45;2.00;;;14.60;82.40;;;;;;5112328;28;20659;-53
2024/03/04 10:19:07;;;;;;;13.55;1.55;;;14.60;82.20;;;;;;5111477;28;20106;-51
2024/03/04 10:21:34;;;;;;;17.73;1.90;;;14.60;82.40;;;;;;5107456;28;20134;-53
2024/03/04 10:24:08;;;;;;;9.45;1.90;;;14.60;82.20;;;;;;5112092;28;20558;-53
2024/03/04 10:27:04;;;;;;;6.93;1.38;;;14.50;82.80;;;;;;5111181;28;20072;-51
2024/03/04 10:29:30;;;;;;;6.32;1.70;;;14.50;83.50;;;;;;5110627;28;20414;-52
2024/03/04 10:31:57;;;;;;;7.22;1.45;;;14.40;84.20;;;;;;5110689;28;20064;-54
2024/03/04 10:34:23;;;;;;;6.18;1.65;;;14.20;85.00;;;;;;5105942;28;20072;-56
2024/03/04 10:36:51;;;;;;;5.88;1.23;;;14.30;85.40;;;;;;5110598;28;20102;-53
2024/03/04 10:39:17;;;;;;;12.25;1.35;;;14.20;85.60;;;;;;5109411;28;20080;-54
2024/03/04 10:41:46;;;;;;;11.32;1.40;;;14.20;85.30;;;;;;5106409;27;20095;-54
2024/03/04 10:44:33;;;;;;;7.05;1.42;;;14.20;85.50;;;;;;5110477;28;20167;-55
2024/03/04 10:47:01;;;;;;;10.80;1.55;;;14.10;85.90;;;;;;5096154;28;20073;-54
2024/03/04 10:49:29;;;;;;;9.20;1.60;;;14.00;86.30;;;;;;5113100;28;20084;-53
2024/03/04 10:51:56;;;;;;;8.77;1.30;;;14.00;85.30;;;;;;5112667;28;20072;-52
2024/03/04 10:54:23;;;;;;;7.35;1.83;;;14.00;84.50;;;;;;5109592;28;20064;-54
2024/03/04 10:57:01;;;;;;;8.40;1.48;;;14.20;83.50;;;;;;5110641;28;20091;-54
2024/03/04 10:59:38;;;;;;;5.28;0.90;;;14.40;80.20;;;;;;5111416;28;20100;-54
2024/03/04 11:02:14;;;;;;;3.65;0.90;;;14.50;79.10;;;;;;5109330;28;20495;-55
2024/03/04 11:04:43;;;;;;;;;;;14.60;78.60;;;;;;5111466;28;20185;-53
2024/03/04 11:07:12;;;;;;;3.92;1.10;;;14.70;78.70;;;;;;5111059;28;19987;-51
2024/03/04 11:09:42;;;;;;;1.80;0.93;;;14.60;79.10;;;;;;5109537;28;20072;-52
2024/03/04 11:12:11;;;;;;;3.17;1.15;;;14.60;79.40;;;;;;5111449;27;20075;-52
2024/03/04 11:15:00;;;;;;;6.30;1.02;;;14.60;79.40;;;;;;5109128;28;20105;-52
2024/03/04 11:17:49;;;;;;;5.65;1.30;;;14.50;80.90;;;;;;5109201;28;20096;-52
2024/03/04 11:20:18;;;;;;;4.30;1.45;;;14.30;81.90;;;;;;5109074;28;20099;-55
2024/03/04 11:22:47;;;;;;;3.05;1.30;;;14.20;83.20;;;;;;5109694;28;20072;-64
2024/03/04 11:25:16;;;;;;;5.78;1.30;;;14.20;83.80;;;;;;5109837;28;20141;-52
2024/03/04 11:27:44;;;;;;;8.40;1.63;;;13.90;84.10;;;;;;5109667;28;20159;-51
2024/03/04 11:30:11;;;;;;;6.75;1.52;;;13.90;85.40;;;;;;5109356;28;20080;-55
2024/03/04 11:32:38;;;;;;;4.78;1.55;;;13.80;85.60;;;;;;5101278;28;20119;-51
2024/03/04 11:35:06;;;;;;;8.93;1.70;;;13.70;86.00;;;;;;5093116;28;20069;-54
2024/03/04 11:37:52;;;;;;;7.35;1.60;;;13.70;87.10;;;;;;5099145;28;20068;-52
2024/03/04 11:40:24;;;;;;;11.45;2.08;;;13.60;86.90;;;;;;5109430;28;20083;-54
2024/03/04 11:42:51;;;;;;;9.65;2.10;;;13.60;87.80;;;;;;5107576;28;20511;-54
2024/03/04 11:45:26;;;;;;;7.93;1.70;;;13.50;87.70;;;;;;5110077;28;20095;-50
2024/03/04 11:47:53;;;;;;;5.15;1.52;;;13.50;87.70;;;;;;5108528;28;20459;-53
2024/03/04 11:50:38;;;;;;;6.57;1.70;;;13.50;87.10;;;;;;5097711;28;20072;-52
2024/03/04 11:53:28;;;;;;;4.10;1.58;;;13.40;86.50;;;;;;5100866;28;20075;-50
2024/03/04 11:55:55;;;;;;;6.43;1.50;;;13.40;85.60;;;;;;5101068;28;20071;-53
2024/03/04 11:58:23;;;;;;;5.75;1.48;;;13.40;85.90;;;;;;5107499;28;21897;-50
2024/03/04 12:00:54;;;;;;;5.00;1.90;;;13.40;85.50;;;;;;5108145;28;20100;-51
2024/03/04 12:03:20;;;;;;;6.78;1.88;;;13.40;86.00;;;;;;5109084;28;20083;-52
2024/03/04 12:05:47;;;;;;;7.10;1.67;;;13.30;86.00;;;;;;5108825;28;20069;-52
2024/03/04 12:08:14;;;;;;;4.35;1.42;;;13.40;86.50;;;;;;5110022;28;20079;-54
2024/03/04 12:10:41;;;;;;;5.43;1.48;;;13.40;86.30;;;;;;5108095;28;20072;-61
2024/03/04 12:13:08;;;;;;;7.55;1.75;;;13.30;86.30;;;;;;5102190;28;20068;-52
2024/03/04 12:15:35;;;;;;;7.10;1.83;;;13.30;86.30;;;;;;5110055;28;20133;-50
2024/03/04 12:18:01;;;;;;;5.10;1.20;;;13.10;87.60;;;;;;5104788;28;20524;-52
2024/03/04 12:20:29;;;;;;;7.05;1.27;;;13.10;86.40;;;;;;5096636;28;20084;-51
2024/03/04 12:22:56;;;;;;;3.13;1.17;;;13.30;85.80;;;;;;5095344;28;20088;-50
2024/03/04 12:25:27;;;;;;;6.53;1.48;;;13.30;86.00;;;;;;5095360;28;20107;-54
2024/03/04 12:27:57;;;;;;;2.35;0.90;;;13.40;85.10;;;;;;5104176;28;20068;-51
2024/03/04 12:30:26;;;;;;;5.25;1.20;;;13.50;85.30;;;;;;5103456;28;20171;-50
2024/03/04 12:32:53;;;;;;;5.68;1.30;;;13.40;85.30;;;;;;5109858;28;20065;-50
2024/03/04 12:35:25;;;;;;;6.22;1.25;;;13.30;85.30;;;;;;5100589;28;20463;-54
2024/03/04 12:37:54;;;;;;;5.88;1.27;;;13.30;85.40;;;;;;5097767;28;20107;-53
2024/03/04 12:40:22;;;;;;;4.05;1.35;;;13.40;86.20;;;;;;5095874;27;20076;-52
2024/03/04 12:43:10;;;;;;;2.95;1.10;;;13.40;85.60;;;;;;5108637;28;20151;-52
2024/03/04 12:45:36;;;;;;;4.93;1.27;;;13.30;85.90;;;;;;5108944;28;20072;-50
2024/03/04 12:48:03;;;;;;;3.90;1.38;;;13.30;85.80;;;;;;5104135;28;20096;-51